createdAt,value
2022-09-02T00:00:59.518Z,1008.19
2022-09-02T00:01:59.594Z,1008.20
2022-09-02T00:02:59.659Z,1008.17
2022-09-02T00:03:59.472Z,1008.20
2022-09-02T00:04:59.481Z,1008.17
2022-09-02T00:05:59.465Z,1008.19
2022-09-02T00:06:59.436Z,1008.20
2022-09-02T00:07:59.429Z,1008.18
2022-09-02T00:08:59.412Z,1008.20
2022-09-02T00:09:59.396Z,1008.17
2022-09-02T00:10:59.394Z,1008.20
2022-09-02T00:11:59.375Z,1008.15
2022-09-02T00:12:59.365Z,1008.14
2022-09-02T00:13:59.348Z,1008.14
2022-09-02T00:14:59.339Z,1008.12
2022-09-02T00:15:59.321Z,1008.13
2022-09-02T00:16:59.416Z,1008.09
2022-09-02T00:17:59.293Z,1008.09
2022-09-02T00:18:59.294Z,1008.11
2022-09-02T00:19:59.278Z,1008.10
2022-09-02T00:20:59.267Z,1008.06
2022-09-02T00:21:59.250Z,1008.09
2022-09-02T00:22:59.249Z,1008.00
2022-09-02T00:23:59.229Z,1008.02
2022-09-02T00:24:59.213Z,1008.00
2022-09-02T00:25:59.195Z,1007.98
2022-09-02T00:26:59.180Z,1007.98
2022-09-02T00:27:59.176Z,1007.98
2022-09-02T00:28:59.188Z,1008.02
2022-09-02T00:29:59.143Z,1008.04
2022-09-02T00:30:59.132Z,1008.00
2022-09-02T00:31:59.169Z,1008.01
2022-09-02T00:32:59.105Z,1008.00
2022-09-02T00:33:59.093Z,1007.98
2022-09-02T00:34:59.122Z,1007.96
2022-09-02T00:35:59.080Z,1007.95
2022-09-02T00:36:59.062Z,1007.96
2022-09-02T00:37:59.051Z,1007.93
2022-09-02T00:38:59.026Z,1007.97
2022-09-02T00:39:59.021Z,1007.99
2022-09-02T00:40:59.013Z,1007.94
2022-09-02T00:41:59.011Z,1007.96
2022-09-02T00:42:58.986Z,1007.95
2022-09-02T00:43:58.974Z,1007.97
2022-09-02T00:44:58.959Z,1007.95
2022-09-02T00:45:58.972Z,1007.93
2022-09-02T00:46:58.949Z,1007.92
2022-09-02T00:47:58.917Z,1007.95
2022-09-02T00:48:58.907Z,1007.92
2022-09-02T00:49:58.889Z,1007.90
2022-09-02T00:50:58.896Z,1007.92
2022-09-02T00:51:58.876Z,1007.90
2022-09-02T00:52:58.876Z,1007.92
2022-09-02T00:53:58.841Z,1007.89
2022-09-02T00:54:58.839Z,1007.88
2022-09-02T00:55:58.826Z,1007.91
2022-09-02T00:56:58.811Z,1007.89
2022-09-02T00:57:58.801Z,1007.92
2022-09-02T00:58:58.793Z,1007.89
2022-09-02T00:59:58.776Z,1007.93
2022-09-02T01:00:58.918Z,1007.91
2022-09-02T01:01:58.886Z,1007.88
2022-09-02T01:02:58.730Z,1007.86
2022-09-02T01:03:58.722Z,1007.85
2022-09-02T01:04:58.738Z,1007.85
2022-09-02T01:05:58.739Z,1007.83
2022-09-02T01:06:58.680Z,1007.82
2022-09-02T01:07:58.669Z,1007.84
2022-09-02T01:08:58.675Z,1007.83
2022-09-02T01:09:58.666Z,1007.83
2022-09-02T01:10:58.636Z,1007.81
2022-09-02T01:11:58.618Z,1007.81
2022-09-02T01:12:58.602Z,1007.81
2022-09-02T01:13:58.603Z,1007.79
2022-09-02T01:14:58.591Z,1007.77
2022-09-02T01:15:58.597Z,1007.78
2022-09-02T01:16:58.571Z,1007.78
2022-09-02T01:17:58.553Z,1007.77
2022-09-02T01:18:58.529Z,1007.78
2022-09-02T01:19:58.522Z,1007.77
2022-09-02T01:20:58.512Z,1007.80
2022-09-02T01:21:58.497Z,1007.77
2022-09-02T01:22:58.490Z,1007.77
2022-09-02T01:23:58.467Z,1007.76
2022-09-02T01:24:58.466Z,1007.78
2022-09-02T01:25:58.455Z,1007.75
2022-09-02T01:26:58.440Z,1007.77
2022-09-02T01:27:58.419Z,1007.76
2022-09-02T01:28:58.426Z,1007.76
2022-09-02T01:29:58.397Z,1007.76
2022-09-02T01:30:58.387Z,1007.76
2022-09-02T01:31:58.451Z,1007.82
2022-09-02T01:32:58.353Z,1007.80
2022-09-02T01:33:58.354Z,1007.75
2022-09-02T01:34:58.356Z,1007.80
2022-09-02T01:35:58.320Z,1007.79
2022-09-02T01:36:58.305Z,1007.78
2022-09-02T01:37:58.298Z,1007.76
2022-09-02T01:38:58.275Z,1007.75
2022-09-02T01:39:58.272Z,1007.77
2022-09-02T01:40:58.266Z,1007.77
2022-09-02T01:41:58.248Z,1007.75
2022-09-02T01:42:58.231Z,1007.74
2022-09-02T01:43:58.255Z,1007.72
2022-09-02T01:44:58.206Z,1007.72
2022-09-02T01:45:58.207Z,1007.71
2022-09-02T01:46:58.269Z,1007.73
2022-09-02T01:47:58.167Z,1007.69
2022-09-02T01:48:58.151Z,1007.70
2022-09-02T01:49:58.147Z,1007.68
2022-09-02T01:50:58.170Z,1007.66
2022-09-02T01:51:58.121Z,1007.66
2022-09-02T01:52:58.120Z,1007.69
2022-09-02T01:53:58.105Z,1007.70
2022-09-02T01:54:58.092Z,1007.67
2022-09-02T01:55:58.068Z,1007.64
2022-09-02T01:56:58.052Z,1007.65
2022-09-02T01:57:58.055Z,1007.64
2022-09-02T01:58:58.040Z,1007.65
2022-09-02T01:59:58.024Z,1007.66
2022-09-02T02:00:58.078Z,1007.65
2022-09-02T02:01:58.003Z,1007.66
2022-09-02T02:02:57.983Z,1007.60
2022-09-02T02:03:57.967Z,1007.63
2022-09-02T02:04:57.972Z,1007.62
2022-09-02T02:05:57.942Z,1007.63
2022-09-02T02:06:57.935Z,1007.59
2022-09-02T02:07:57.935Z,1007.58
2022-09-02T02:08:57.910Z,1007.62
2022-09-02T02:09:57.895Z,1007.63
2022-09-02T02:10:57.893Z,1007.58
2022-09-02T02:11:57.874Z,1007.62
2022-09-02T02:12:57.873Z,1007.62
2022-09-02T02:13:57.867Z,1007.63
2022-09-02T02:14:57.834Z,1007.65
2022-09-02T02:15:57.846Z,1007.65
2022-09-02T02:16:57.832Z,1007.62
2022-09-02T02:17:57.793Z,1007.63
2022-09-02T02:18:57.780Z,1007.65
2022-09-02T02:19:57.779Z,1007.63
2022-09-02T02:20:57.752Z,1007.63
2022-09-02T02:21:57.746Z,1007.63
2022-09-02T02:22:57.747Z,1007.61
2022-09-02T02:23:57.722Z,1007.59
2022-09-02T02:24:57.706Z,1007.56
2022-09-02T02:25:57.692Z,1007.54
2022-09-02T02:26:57.678Z,1007.57
2022-09-02T02:27:57.667Z,1007.58
2022-09-02T02:28:57.673Z,1007.56
2022-09-02T02:29:57.646Z,1007.60
2022-09-02T02:30:57.652Z,1007.54
2022-09-02T02:31:57.625Z,1007.56
2022-09-02T02:32:57.614Z,1007.52
2022-09-02T02:33:57.599Z,1007.58
2022-09-02T02:34:57.592Z,1007.52
2022-09-02T02:35:57.565Z,1007.56
2022-09-02T02:36:57.558Z,1007.51
2022-09-02T02:37:57.541Z,1007.52
2022-09-02T02:38:57.545Z,1007.55
2022-09-02T02:39:57.529Z,1007.54
2022-09-02T02:40:57.518Z,1007.55
2022-09-02T02:41:57.497Z,1007.54
2022-09-02T02:42:57.480Z,1007.54
2022-09-02T02:43:57.474Z,1007.54
2022-09-02T02:44:57.456Z,1007.53
2022-09-02T02:45:57.448Z,1007.56
2022-09-02T02:46:57.475Z,1007.57
2022-09-02T02:47:57.422Z,1007.58
2022-09-02T02:48:57.426Z,1007.56
2022-09-02T02:49:57.395Z,1007.53
2022-09-02T02:50:57.380Z,1007.55
2022-09-02T02:51:57.384Z,1007.56
2022-09-02T02:52:57.369Z,1007.54
2022-09-02T02:53:58.984Z,1007.59
2022-09-02T02:54:57.325Z,1007.54
2022-09-02T02:55:57.317Z,1007.55
2022-09-02T02:56:57.310Z,1007.57
2022-09-02T02:57:57.296Z,1007.56
2022-09-02T02:58:57.319Z,1007.53
2022-09-02T02:59:57.271Z,1007.52
2022-09-02T03:00:57.260Z,1007.51
2022-09-02T03:01:57.384Z,1007.52
2022-09-02T03:02:57.291Z,1007.54
2022-09-02T03:03:57.217Z,1007.53
2022-09-02T03:04:57.210Z,1007.53
2022-09-02T03:05:57.202Z,1007.54
2022-09-02T03:06:57.184Z,1007.51
2022-09-02T03:07:57.181Z,1007.53
2022-09-02T03:08:57.152Z,1007.51
2022-09-02T03:09:57.141Z,1007.49
2022-09-02T03:10:57.145Z,1007.50
2022-09-02T03:11:57.113Z,1007.50
2022-09-02T03:12:57.103Z,1007.46
2022-09-02T03:13:57.095Z,1007.44
2022-09-02T03:14:57.084Z,1007.46
2022-09-02T03:15:57.145Z,1007.49
2022-09-02T03:16:57.068Z,1007.48
2022-09-02T03:17:57.038Z,1007.43
2022-09-02T03:18:57.025Z,1007.48
2022-09-02T03:19:57.011Z,1007.45
2022-09-02T03:20:57.007Z,1007.46
2022-09-02T03:21:56.996Z,1007.45
2022-09-02T03:22:56.985Z,1007.43
2022-09-02T03:23:57.953Z,1007.39
2022-09-02T03:24:56.958Z,1007.48
2022-09-02T03:25:56.941Z,1007.46
2022-09-02T03:26:56.924Z,1007.44
2022-09-02T03:27:56.916Z,1007.45
2022-09-02T03:28:56.919Z,1007.47
2022-09-02T03:29:56.891Z,1007.43
2022-09-02T03:30:56.888Z,1007.46
2022-09-02T03:31:56.955Z,1007.46
2022-09-02T03:33:00.491Z,1007.44
2022-09-02T03:33:56.855Z,1007.43
2022-09-02T03:34:56.840Z,1007.44
2022-09-02T03:35:56.820Z,1007.45
2022-09-02T03:36:56.801Z,1007.42
2022-09-02T03:37:57.460Z,1007.43
2022-09-02T03:38:56.772Z,1007.40
2022-09-02T03:39:56.723Z,1007.41
2022-09-02T03:40:56.709Z,1007.39
2022-09-02T03:41:56.699Z,1007.38
2022-09-02T03:43:00.179Z,1007.41
2022-09-02T03:43:56.714Z,1007.36
2022-09-02T03:44:56.697Z,1007.36
2022-09-02T03:45:56.792Z,1007.38
2022-09-02T03:46:56.686Z,1007.39
2022-09-02T03:47:56.668Z,1007.35
2022-09-02T03:48:56.652Z,1007.39
2022-09-02T03:49:56.636Z,1007.34
2022-09-02T03:50:56.625Z,1007.38
2022-09-02T03:51:56.611Z,1007.36
2022-09-02T03:52:56.637Z,1007.34
2022-09-02T03:53:56.591Z,1007.35
2022-09-02T03:54:56.572Z,1007.35
2022-09-02T03:55:56.563Z,1007.33
2022-09-02T03:56:56.548Z,1007.32
2022-09-02T03:57:56.543Z,1007.32
2022-09-02T03:58:56.533Z,1007.34
2022-09-02T03:59:56.515Z,1007.31
2022-09-02T04:00:56.506Z,1007.28
2022-09-02T04:01:56.700Z,1007.25
2022-09-02T04:02:56.522Z,1007.30
2022-09-02T04:03:56.472Z,1007.29
2022-09-02T04:04:56.468Z,1007.25
2022-09-02T04:05:56.434Z,1007.31
2022-09-02T04:06:56.436Z,1007.27
2022-09-02T04:07:56.411Z,1007.28
2022-09-02T04:08:56.406Z,1007.28
2022-09-02T04:09:56.395Z,1007.25
2022-09-02T04:10:56.417Z,1007.29
2022-09-02T04:11:56.370Z,1007.28
2022-09-02T04:12:56.358Z,1007.29
2022-09-02T04:13:56.338Z,1007.27
2022-09-02T04:14:57.647Z,1007.29
2022-09-02T04:15:59.856Z,1007.24
2022-09-02T04:16:56.320Z,1007.25
2022-09-02T04:17:56.289Z,1007.26
2022-09-02T04:18:56.276Z,1007.26
2022-09-02T04:19:56.261Z,1007.28
2022-09-02T04:20:56.251Z,1007.29
2022-09-02T04:21:56.235Z,1007.25
2022-09-02T04:22:56.236Z,1007.28
2022-09-02T04:23:56.214Z,1007.25
2022-09-02T04:24:56.153Z,1007.26
2022-09-02T04:25:56.203Z,1007.25
2022-09-02T04:26:58.555Z,1007.23
2022-09-02T04:27:56.121Z,1007.22
2022-09-02T04:28:56.104Z,1007.20
2022-09-02T04:29:56.090Z,1007.23
2022-09-02T04:30:56.118Z,1007.19
2022-09-02T04:31:56.112Z,1007.17
2022-09-02T04:32:56.096Z,1007.19
2022-09-02T04:33:56.058Z,1007.20
2022-09-02T04:34:56.033Z,1007.18
2022-09-02T04:35:56.009Z,1007.14
2022-09-02T04:36:55.997Z,1007.18
2022-09-02T04:37:55.996Z,1007.13
2022-09-02T04:38:55.968Z,1007.13
2022-09-02T04:39:55.956Z,1007.13
2022-09-02T04:40:55.962Z,1007.13
2022-09-02T04:41:55.949Z,1007.14
2022-09-02T04:42:55.921Z,1007.12
2022-09-02T04:43:55.904Z,1007.14
2022-09-02T04:44:55.899Z,1007.16
2022-09-02T04:45:55.922Z,1007.15
2022-09-02T04:46:55.879Z,1007.18
2022-09-02T04:47:55.866Z,1007.19
2022-09-02T04:48:55.840Z,1007.21
2022-09-02T04:49:55.835Z,1007.18
2022-09-02T04:50:55.821Z,1007.21
2022-09-02T04:51:55.807Z,1007.18
2022-09-02T04:52:55.810Z,1007.20
2022-09-02T04:53:55.780Z,1007.24
2022-09-02T04:54:55.773Z,1007.19
2022-09-02T04:55:58.108Z,1007.22
2022-09-02T04:56:55.750Z,1007.23
2022-09-02T04:57:55.731Z,1007.24
2022-09-02T04:58:55.732Z,1007.23
2022-09-02T04:59:55.706Z,1007.23
2022-09-02T05:00:55.696Z,1007.25
2022-09-02T05:01:55.804Z,1007.23
2022-09-02T05:02:55.762Z,1007.19
2022-09-02T05:03:55.692Z,1007.21
2022-09-02T05:04:55.656Z,1007.24
2022-09-02T05:05:55.643Z,1007.23
2022-09-02T05:06:55.620Z,1007.22
2022-09-02T05:07:55.666Z,1007.22
2022-09-02T05:08:55.600Z,1007.24
2022-09-02T05:09:55.581Z,1007.25
2022-09-02T05:10:55.593Z,1007.25
2022-09-02T05:11:55.557Z,1007.23
2022-09-02T05:12:55.554Z,1007.23
2022-09-02T05:13:55.529Z,1007.22
2022-09-02T05:14:55.518Z,1007.24
2022-09-02T05:15:55.570Z,1007.22
2022-09-02T05:16:55.503Z,1007.26
2022-09-02T05:17:55.488Z,1007.23
2022-09-02T05:18:55.473Z,1007.22
2022-09-02T05:19:55.452Z,1007.21
2022-09-02T05:20:55.450Z,1007.22
2022-09-02T05:21:55.434Z,1007.22
2022-09-02T05:22:55.430Z,1007.25
2022-09-02T05:23:55.414Z,1007.25
2022-09-02T05:24:55.399Z,1007.26
2022-09-02T05:25:55.385Z,1007.26
2022-09-02T05:26:55.389Z,1007.29
2022-09-02T05:27:55.358Z,1007.27
2022-09-02T05:28:55.359Z,1007.28
2022-09-02T05:29:55.334Z,1007.28
2022-09-02T05:30:55.361Z,1007.28
2022-09-02T05:31:55.315Z,1007.27
2022-09-02T05:32:55.303Z,1007.30
2022-09-02T05:33:55.298Z,1007.28
2022-09-02T05:34:55.310Z,1007.30
2022-09-02T05:35:55.263Z,1007.29
2022-09-02T05:36:55.251Z,1007.30
2022-09-02T05:37:58.782Z,1007.28
2022-09-02T05:38:55.238Z,1007.26
2022-09-02T05:39:55.211Z,1007.27
2022-09-02T05:40:55.261Z,1007.27
2022-09-02T05:41:55.185Z,1007.27
2022-09-02T05:42:55.165Z,1007.26
2022-09-02T05:43:55.155Z,1007.23
2022-09-02T05:44:55.150Z,1007.26
2022-09-02T05:45:55.335Z,1007.24
2022-09-02T05:46:55.134Z,1007.26
2022-09-02T05:47:55.122Z,1007.28
2022-09-02T05:48:55.098Z,1007.27
2022-09-02T05:49:55.092Z,1007.27
2022-09-02T05:50:57.652Z,1007.28
2022-09-02T05:51:55.070Z,1007.27
2022-09-02T05:52:55.073Z,1007.27
2022-09-02T05:53:55.032Z,1007.26
2022-09-02T05:54:55.027Z,1007.24
2022-09-02T05:55:55.015Z,1007.23
2022-09-02T05:56:55.011Z,1007.25
2022-09-02T05:57:54.985Z,1007.22
2022-09-02T05:58:54.984Z,1007.21
2022-09-02T05:59:54.963Z,1007.19
2022-09-02T06:00:54.950Z,1007.20
2022-09-02T06:01:54.991Z,1007.18
2022-09-02T06:02:54.984Z,1007.22
2022-09-02T06:03:54.910Z,1007.20
2022-09-02T06:04:54.915Z,1007.18
2022-09-02T06:05:54.882Z,1007.22
2022-09-02T06:06:54.886Z,1007.19
2022-09-02T06:07:54.857Z,1007.21
2022-09-02T06:08:54.844Z,1007.22
2022-09-02T06:09:54.838Z,1007.22
2022-09-02T06:10:54.853Z,1007.20
2022-09-02T06:11:54.816Z,1007.21
2022-09-02T06:12:54.794Z,1007.22
2022-09-02T06:13:54.784Z,1007.20
2022-09-02T06:14:54.778Z,1007.22
2022-09-02T06:15:54.838Z,1007.21
2022-09-02T06:16:54.768Z,1007.20
2022-09-02T06:17:54.737Z,1007.25
2022-09-02T06:18:54.727Z,1007.22
2022-09-02T06:19:54.714Z,1007.21
2022-09-02T06:20:54.696Z,1007.22
2022-09-02T06:21:54.686Z,1007.24
2022-09-02T06:22:54.690Z,1007.22
2022-09-02T06:23:54.660Z,1007.21
2022-09-02T06:24:54.664Z,1007.26
2022-09-02T06:25:54.637Z,1007.23
2022-09-02T06:26:55.724Z,1007.21
2022-09-02T06:27:54.612Z,1007.23
2022-09-02T06:28:54.623Z,1007.23
2022-09-02T06:29:54.583Z,1007.23
2022-09-02T06:30:54.621Z,1007.21
2022-09-02T06:31:54.564Z,1007.21
2022-09-02T06:32:54.542Z,1007.25
2022-09-02T06:33:54.549Z,1007.19
2022-09-02T06:34:54.533Z,1007.23
2022-09-02T06:35:54.507Z,1007.22
2022-09-02T06:36:54.513Z,1007.25
2022-09-02T06:37:54.491Z,1007.27
2022-09-02T06:38:54.477Z,1007.21
2022-09-02T06:39:54.474Z,1007.24
2022-09-02T06:40:54.561Z,1007.22
2022-09-02T06:41:54.441Z,1007.25
2022-09-02T06:42:54.420Z,1007.23
2022-09-02T06:43:54.406Z,1007.22
2022-09-02T06:44:54.394Z,1007.22
2022-09-02T06:45:54.422Z,1007.20
2022-09-02T06:46:54.573Z,1007.20
2022-09-02T06:47:54.373Z,1007.21
2022-09-02T06:48:54.346Z,1007.21
2022-09-02T06:49:54.336Z,1007.18
2022-09-02T06:50:54.324Z,1007.17
2022-09-02T06:51:54.315Z,1007.22
2022-09-02T06:52:54.323Z,1007.20
2022-09-02T06:53:54.286Z,1007.23
2022-09-02T06:54:54.268Z,1007.18
2022-09-02T06:55:54.268Z,1007.23
2022-09-02T06:56:54.245Z,1007.22
2022-09-02T06:57:54.236Z,1007.20
2022-09-02T06:58:54.235Z,1007.20
2022-09-02T06:59:54.205Z,1007.20
2022-09-02T07:00:54.220Z,1007.17
2022-09-02T07:01:54.397Z,1007.21
2022-09-02T07:02:54.174Z,1007.19
2022-09-02T07:03:54.163Z,1007.19
2022-09-02T07:04:55.680Z,1007.19
2022-09-02T07:05:54.134Z,1007.17
2022-09-02T07:06:54.116Z,1007.18
2022-09-02T07:07:54.122Z,1007.16
2022-09-02T07:08:54.096Z,1007.18
2022-09-02T07:09:54.080Z,1007.19
2022-09-02T07:10:54.087Z,1007.17
2022-09-02T07:11:54.063Z,1007.18
2022-09-02T07:12:54.043Z,1007.17
2022-09-02T07:13:54.506Z,1007.18
2022-09-02T07:14:54.020Z,1007.21
2022-09-02T07:15:54.011Z,1007.20
2022-09-02T07:16:54.038Z,1007.21
2022-09-02T07:17:53.985Z,1007.19
2022-09-02T07:18:53.992Z,1007.18
2022-09-02T07:19:53.960Z,1007.18
2022-09-02T07:20:53.949Z,1007.15
2022-09-02T07:21:53.933Z,1007.18
2022-09-02T07:22:53.929Z,1007.17
2022-09-02T07:23:53.909Z,1007.16
2022-09-02T07:24:53.898Z,1007.17
2022-09-02T07:25:53.888Z,1007.12
2022-09-02T07:26:55.472Z,1007.15
2022-09-02T07:27:53.867Z,1007.14
2022-09-02T07:28:53.860Z,1007.16
2022-09-02T07:29:53.832Z,1007.15
2022-09-02T07:30:58.960Z,1007.13
2022-09-02T07:31:53.818Z,1007.13
2022-09-02T07:32:53.803Z,1007.12
2022-09-02T07:33:53.786Z,1007.09
2022-09-02T07:34:53.790Z,1007.13
2022-09-02T07:35:53.776Z,1007.14
2022-09-02T07:36:53.746Z,1007.15
2022-09-02T07:37:53.734Z,1007.12
2022-09-02T07:38:53.723Z,1007.10
2022-09-02T07:39:53.719Z,1007.09
2022-09-02T07:40:57.146Z,1007.10
2022-09-02T07:41:53.687Z,1007.12
2022-09-02T07:42:53.770Z,1007.11
2022-09-02T07:43:56.355Z,1007.13
2022-09-02T07:44:53.652Z,1007.13
2022-09-02T07:45:53.725Z,1007.13
2022-09-02T07:46:53.659Z,1007.11
2022-09-02T07:47:53.615Z,1007.12
2022-09-02T07:48:53.607Z,1007.06
2022-09-02T07:50:53.581Z,1007.09
2022-09-02T07:51:53.556Z,1007.09
2022-09-02T07:52:53.564Z,1007.06
2022-09-02T07:53:53.572Z,1007.02
2022-09-02T07:54:53.526Z,1007.01
2022-09-02T07:55:53.509Z,1007.00
2022-09-02T07:56:53.502Z,1006.95
2022-09-02T07:57:53.482Z,1007.02
2022-09-02T07:58:53.489Z,1006.99
2022-09-02T07:59:53.472Z,1007.01
2022-09-02T08:00:53.475Z,1006.98
2022-09-02T08:01:53.434Z,1006.95
2022-09-02T08:02:53.517Z,1006.99
2022-09-02T08:03:53.406Z,1006.97
2022-09-02T08:04:53.413Z,1006.98
2022-09-02T08:05:53.381Z,1006.98
2022-09-02T08:06:53.368Z,1006.99
2022-09-02T08:07:53.362Z,1007.03
2022-09-02T08:08:53.364Z,1006.99
2022-09-02T08:09:53.342Z,1007.01
2022-09-02T08:10:53.362Z,1007.00
2022-09-02T08:11:53.315Z,1006.97
2022-09-02T08:12:53.293Z,1006.97
2022-09-02T08:13:53.295Z,1006.97
2022-09-02T08:14:53.296Z,1006.99
2022-09-02T08:15:53.276Z,1006.97
2022-09-02T08:16:53.320Z,1007.01
2022-09-02T08:17:53.233Z,1007.01
2022-09-02T08:18:53.252Z,1007.00
2022-09-02T08:19:53.208Z,1007.00
2022-09-02T08:20:53.200Z,1007.02
2022-09-02T08:21:53.319Z,1006.99
2022-09-02T08:23:04.999Z,1006.99
2022-09-02T08:23:53.172Z,1006.95
2022-09-02T08:24:53.151Z,1006.97
2022-09-02T08:25:53.147Z,1006.99
2022-09-02T08:26:53.121Z,1006.99
2022-09-02T08:27:53.109Z,1006.98
2022-09-02T08:28:53.102Z,1007.00
2022-09-02T08:29:53.089Z,1007.01
2022-09-02T08:30:53.088Z,1007.00
2022-09-02T08:31:54.153Z,1007.02
2022-09-02T08:32:53.053Z,1007.06
2022-09-02T08:33:53.045Z,1007.09
2022-09-02T08:34:53.035Z,1007.08
2022-09-02T08:35:53.014Z,1007.08
2022-09-02T08:36:56.261Z,1007.07
2022-09-02T08:37:52.985Z,1007.09
2022-09-02T08:38:52.972Z,1007.08
2022-09-02T08:39:52.964Z,1007.08
2022-09-02T08:40:53.090Z,1007.07
2022-09-02T08:41:53.024Z,1007.04
2022-09-02T08:42:52.925Z,1007.06
2022-09-02T08:43:52.911Z,1007.08
2022-09-02T08:44:52.897Z,1007.06
2022-09-02T08:45:52.953Z,1007.06
2022-09-02T08:46:52.888Z,1007.04
2022-09-02T08:47:52.868Z,1007.04
2022-09-02T08:48:52.856Z,1007.04
2022-09-02T08:49:52.843Z,1007.00
2022-09-02T08:50:52.819Z,1006.99
2022-09-02T08:51:53.780Z,1006.98
2022-09-02T08:52:52.821Z,1006.94
2022-09-02T08:53:52.847Z,1006.93
2022-09-02T08:54:52.770Z,1006.94
2022-09-02T08:55:52.756Z,1006.92
2022-09-02T08:56:52.750Z,1006.94
2022-09-02T08:57:52.788Z,1006.93
2022-09-02T08:58:52.758Z,1006.93
2022-09-02T08:59:53.276Z,1006.93
2022-09-02T09:00:52.707Z,1006.95
2022-09-02T09:01:52.733Z,1006.96
2022-09-02T09:02:52.714Z,1006.89
2022-09-02T09:03:52.662Z,1006.90
2022-09-02T09:04:52.655Z,1006.94
2022-09-02T09:05:52.637Z,1006.85
2022-09-02T09:06:52.642Z,1006.88
2022-09-02T09:07:52.610Z,1006.88
2022-09-02T09:08:52.681Z,1006.84
2022-09-02T09:09:52.620Z,1006.86
2022-09-02T09:10:52.672Z,1006.82
2022-09-02T09:11:52.580Z,1006.83
2022-09-02T09:12:52.583Z,1006.81
2022-09-02T09:13:52.544Z,1006.78
2022-09-02T09:14:52.532Z,1006.78
2022-09-02T09:15:52.565Z,1006.75
2022-09-02T09:16:52.548Z,1006.74
2022-09-02T09:17:52.488Z,1006.76
2022-09-02T09:18:52.486Z,1006.74
2022-09-02T09:19:58.490Z,1006.76
2022-09-02T09:20:52.444Z,1006.72
2022-09-02T09:21:52.447Z,1006.71
2022-09-02T09:22:52.424Z,1006.72
2022-09-02T09:23:52.409Z,1006.73
2022-09-02T09:24:52.416Z,1006.69
2022-09-02T09:25:52.382Z,1006.70
2022-09-02T09:26:52.391Z,1006.67
2022-09-02T09:27:52.373Z,1006.65
2022-09-02T09:28:52.360Z,1006.68
2022-09-02T09:29:52.347Z,1006.68
2022-09-02T09:30:52.348Z,1006.64
2022-09-02T09:31:52.383Z,1006.65
2022-09-02T09:32:52.300Z,1006.62
2022-09-02T09:33:52.285Z,1006.58
2022-09-02T09:34:52.292Z,1006.53
2022-09-02T09:35:52.265Z,1006.53
2022-09-02T09:36:52.249Z,1006.51
2022-09-02T09:37:52.243Z,1006.48
2022-09-02T09:38:52.224Z,1006.46
2022-09-02T09:39:52.205Z,1006.39
2022-09-02T09:40:52.461Z,1006.38
2022-09-02T09:41:52.184Z,1006.37
2022-09-02T09:42:52.236Z,1006.36
2022-09-02T09:43:52.177Z,1006.37
2022-09-02T09:44:52.157Z,1006.40
2022-09-02T09:45:52.172Z,1006.35
2022-09-02T09:46:52.147Z,1006.38
2022-09-02T09:47:54.739Z,1006.35
2022-09-02T09:48:52.113Z,1006.36
2022-09-02T09:49:52.109Z,1006.37
2022-09-02T09:50:52.379Z,1006.39
2022-09-02T09:51:52.057Z,1006.35
2022-09-02T09:52:52.074Z,1006.37
2022-09-02T09:53:52.034Z,1006.38
2022-09-02T09:54:52.050Z,1006.34
2022-09-02T09:55:52.011Z,1006.33
2022-09-02T09:56:51.999Z,1006.33
2022-09-02T09:57:51.983Z,1006.34
2022-09-02T09:58:51.993Z,1006.34
2022-09-02T09:59:52.063Z,1006.33
2022-09-02T10:00:51.979Z,1006.27
2022-09-02T10:01:52.003Z,1006.27
2022-09-02T10:02:51.919Z,1006.26
2022-09-02T10:03:51.906Z,1006.29
2022-09-02T10:04:52.096Z,1006.29
2022-09-02T10:05:51.882Z,1006.34
2022-09-02T10:06:51.866Z,1006.33
2022-09-02T10:07:51.864Z,1006.36
2022-09-02T10:08:51.872Z,1006.36
2022-09-02T10:09:52.007Z,1006.32
2022-09-02T10:10:51.827Z,1006.34
2022-09-02T10:11:51.817Z,1006.33
2022-09-02T10:12:51.793Z,1006.34
2022-09-02T10:13:51.946Z,1006.32
2022-09-02T10:14:51.800Z,1006.30
2022-09-02T10:15:51.757Z,1006.24
2022-09-02T10:16:51.874Z,1006.31
2022-09-02T10:17:51.730Z,1006.32
2022-09-02T10:18:51.717Z,1006.31
2022-09-02T10:19:51.987Z,1006.32
2022-09-02T10:21:11.788Z,1006.31
2022-09-02T10:21:51.691Z,1006.31
2022-09-02T10:22:59.509Z,1006.27
2022-09-02T10:23:51.674Z,1006.29
2022-09-02T10:24:52.358Z,1006.28
2022-09-02T10:25:51.751Z,1006.24
2022-09-02T10:26:51.627Z,1006.27
2022-09-02T10:27:51.604Z,1006.23
2022-09-02T10:28:51.822Z,1006.21
2022-09-02T10:29:51.734Z,1006.21
2022-09-02T10:30:51.725Z,1006.17
2022-09-02T10:31:51.601Z,1006.14
2022-09-02T10:32:51.544Z,1006.13
2022-09-02T10:33:51.550Z,1006.09
2022-09-02T10:34:51.541Z,1006.10
2022-09-02T10:35:51.517Z,1006.12
2022-09-02T10:36:51.504Z,1006.16
2022-09-02T10:37:51.496Z,1006.14
2022-09-02T10:38:51.469Z,1006.10
2022-09-02T10:39:51.467Z,1006.00
2022-09-02T10:40:51.521Z,1006.06
2022-09-02T10:41:51.438Z,1006.00
2022-09-02T10:42:51.453Z,1005.96
2022-09-02T10:43:56.756Z,1006.00
2022-09-02T10:44:54.527Z,1006.02
2022-09-02T10:45:57.922Z,1006.01
2022-09-02T10:46:51.468Z,1005.98
2022-09-02T10:48:51.353Z,1005.95
2022-09-02T10:49:51.332Z,1005.92
2022-09-02T10:50:51.334Z,1005.93
2022-09-02T10:51:51.359Z,1005.95
2022-09-02T10:52:51.303Z,1005.93
2022-09-02T10:53:51.285Z,1005.94
2022-09-02T10:54:51.272Z,1005.95
2022-09-02T10:55:51.276Z,1005.93
2022-09-02T10:56:51.262Z,1005.95
2022-09-02T10:57:51.252Z,1005.91
2022-09-02T10:58:51.247Z,1005.92
2022-09-02T10:59:51.208Z,1005.95
2022-09-02T11:00:51.280Z,1005.95
2022-09-02T11:01:51.179Z,1005.97
2022-09-02T11:02:51.229Z,1005.97
2022-09-02T11:03:51.229Z,1005.94
2022-09-02T11:04:51.142Z,1005.99
2022-09-02T11:05:51.132Z,1005.96
2022-09-02T11:07:02.365Z,1005.96
2022-09-02T11:07:51.112Z,1005.95
2022-09-02T11:08:51.100Z,1005.92
2022-09-02T11:09:51.098Z,1005.93
2022-09-02T11:10:51.071Z,1005.93
2022-09-02T11:11:51.063Z,1005.88
2022-09-02T11:12:51.042Z,1005.87
2022-09-02T11:13:51.042Z,1005.90
2022-09-02T11:14:51.019Z,1005.85
2022-09-02T11:15:51.061Z,1005.86
2022-09-02T11:16:50.994Z,1005.81
2022-09-02T11:17:50.988Z,1005.87
2022-09-02T11:18:50.968Z,1005.85
2022-09-02T11:19:51.167Z,1005.83
2022-09-02T11:20:50.948Z,1005.85
2022-09-02T11:21:50.951Z,1005.81
2022-09-02T11:22:50.923Z,1005.77
2022-09-02T11:23:50.918Z,1005.79
2022-09-02T11:24:50.898Z,1005.77
2022-09-02T11:25:50.916Z,1005.75
2022-09-02T11:26:50.874Z,1005.75
2022-09-02T11:27:50.890Z,1005.74
2022-09-02T11:28:50.857Z,1005.74
2022-09-02T11:29:56.858Z,1005.73
2022-09-02T11:31:50.818Z,1005.70
2022-09-02T11:32:50.799Z,1005.71
2022-09-02T11:33:50.868Z,1005.63
2022-09-02T11:34:50.781Z,1005.66
2022-09-02T11:35:50.770Z,1005.65
2022-09-02T11:36:50.748Z,1005.61
2022-09-02T11:37:50.744Z,1005.61
2022-09-02T11:38:50.734Z,1005.60
2022-09-02T11:39:59.012Z,1005.61
2022-09-02T11:41:50.716Z,1005.67
2022-09-02T11:42:50.694Z,1005.61
2022-09-02T11:43:50.692Z,1005.68
2022-09-02T11:44:52.838Z,1005.62
2022-09-02T11:45:50.713Z,1005.68
2022-09-02T11:46:50.713Z,1005.68
2022-09-02T11:47:50.618Z,1005.60
2022-09-02T11:48:50.598Z,1005.62
2022-09-02T11:49:50.620Z,1005.64
2022-09-02T11:50:50.584Z,1005.65
2022-09-02T11:51:50.566Z,1005.58
2022-09-02T11:52:50.560Z,1005.53
2022-09-02T11:53:54.945Z,1005.58
2022-09-02T11:54:50.531Z,1005.57
2022-09-02T11:55:50.508Z,1005.50
2022-09-02T11:56:50.505Z,1005.53
2022-09-02T11:57:50.489Z,1005.53
2022-09-02T11:58:50.468Z,1005.55
2022-09-02T11:59:50.481Z,1005.52
2022-09-02T12:00:50.455Z,1005.52
2022-09-02T12:01:50.432Z,1005.48
2022-09-02T12:02:50.425Z,1005.49
2022-09-02T12:04:16.128Z,1005.53
2022-09-02T12:05:00.458Z,1005.47
2022-09-02T12:05:50.533Z,1005.46
2022-09-02T12:06:50.508Z,1005.45
2022-09-02T12:07:50.387Z,1005.44
2022-09-02T12:08:50.348Z,1005.45
2022-09-02T12:09:50.377Z,1005.43